Station Historical Data
Daily Summary for February 5, 2012 Units:  English    Metric   Both
« Previous Day
Next Day »
Daily Weekly Monthly Yearly Custom
  High: Low: Average:
Temperature: 57.0 °F 42.7 °F 51 °F
Dew Point: 55.9 °F 40.9 °F 46.8 °F
Humidity: 96% 64% 86%
Wind Speed: 11.0mph 0.0mph 4.5mph
Wind Gust: 13.0mph - -
Wind- - WNW
Pressure: 30.19 in 30.03 in -
Precipitation: 0.00 in    
Historical Graphs
 
 
Tabular Data for February 5, 2012
Time Temperature Dew Point Pressure Wind Wind Speed Wind Gust Humidity Rainfall Rate (Hourly) Conditions
00:00 56.8 °F 55.7 °F 30.03 in WSW 3.0 mph 3.0 mph 96% 0.00 in
00:01 56.9 °F 55.8 °F 30.03 in SW 2.0 mph 3.0 mph 96% 0.00 in
00:06 56.9 °F 55.8 °F 30.03 in SW 2.0 mph 3.0 mph 96% 0.00 in
00:11 56.9 °F 55.8 °F 30.03 in SW 1.0 mph 2.0 mph 96% 0.00 in
00:16 56.9 °F 55.8 °F 30.03 in SW 1.0 mph 3.0 mph 96% 0.00 in
00:21 56.9 °F 55.8 °F 30.03 in SW 2.0 mph 3.0 mph 96% 0.00 in
00:26 56.9 °F 55.8 °F 30.03 in WSW 4.0 mph 5.0 mph 96% 0.00 in
00:31 56.9 °F 55.8 °F 30.03 in WSW 3.0 mph 4.0 mph 96% 0.00 in
00:36 56.9 °F 55.8 °F 30.03 in WSW 2.0 mph 5.0 mph 96% 0.00 in
00:41 56.9 °F 55.8 °F 30.03 in WSW 5.0 mph 5.0 mph 96% 0.00 in
00:46 57.0 °F 55.9 °F 30.03 in WSW 3.0 mph 5.0 mph 96% 0.00 in
00:49 57.0 °F 55.9 °F 30.03 in West 2.0 mph 5.0 mph 96% 0.00 in
00:54 56.8 °F 55.7 °F 30.04 in WNW 6.0 mph 9.0 mph 96% 0.00 in
00:59 56.1 °F 55.0 °F 30.04 in NW 5.0 mph 8.0 mph 96% 0.00 in
01:04 55.5 °F 54.4 °F 30.04 in WNW 6.0 mph 10.0 mph 96% 0.00 in
01:09 55.2 °F 54.1 °F 30.04 in NW 6.0 mph 10.0 mph 96% 0.00 in
01:14 55.1 °F 54.0 °F 30.04 in NW 3.0 mph 7.0 mph 96% 0.00 in
01:19 55.0 °F 53.9 °F 30.05 in WNW 3.0 mph 4.0 mph 96% 0.00 in
01:24 54.9 °F 53.8 °F 30.05 in WNW 4.0 mph 4.0 mph 96% 0.00 in
01:29 54.9 °F 53.8 °F 30.04 in WNW 6.0 mph 6.0 mph 96% 0.00 in
01:34 54.8 °F 53.7 °F 30.04 in WNW 2.0 mph 5.0 mph 96% 0.00 in
01:39 54.8 °F 53.7 °F 30.04 in WNW 1.0 mph 5.0 mph 96% 0.00 in
01:44 54.7 °F 53.6 °F 30.04 in NW 2.0 mph 5.0 mph 96% 0.00 in
01:49 54.7 °F 53.6 °F 30.04 in WNW 3.0 mph 6.0 mph 96% 0.00 in
01:54 54.7 °F 53.6 °F 30.04 in NW 3.0 mph 5.0 mph 96% 0.00 in
01:59 54.8 °F 53.7 °F 30.04 in NW 4.0 mph 5.0 mph 96% 0.00 in
02:04 54.7 °F 53.6 °F 30.04 in NW 3.0 mph 3.0 mph 96% 0.00 in
02:09 54.7 °F 53.6 °F 30.04 in WNW 4.0 mph 5.0 mph 96% 0.00 in
02:14 54.7 °F 53.6 °F 30.03 in NW 2.0 mph 5.0 mph 96% 0.00 in
02:19 54.5 °F 53.4 °F 30.04 in WNW 4.0 mph 4.0 mph 96% 0.00 in
02:24 54.5 °F 53.4 °F 30.04 in WNW 4.0 mph 4.0 mph 96% 0.00 in
02:29 54.5 °F 53.4 °F 30.04 in NW 5.0 mph 5.0 mph 96% 0.00 in
02:34 54.6 °F 53.5 °F 30.04 in WNW 3.0 mph 4.0 mph 96% 0.00 in
02:40 54.6 °F 53.5 °F 30.05 in WNW 4.0 mph 4.0 mph 96% 0.00 in
02:45 54.6 °F 53.5 °F 30.05 in WNW 3.0 mph 4.0 mph 96% 0.00 in
02:50 54.6 °F 53.5 °F 30.05 in WNW 1.0 mph 3.0 mph 96% 0.00 in
02:55 54.6 °F 53.5 °F 30.04 in West 2.0 mph 3.0 mph 96% 0.00 in
03:00 54.6 °F 53.5 °F 30.04 in West 2.0 mph 2.0 mph 96% 0.00 in
03:05 54.6 °F 53.5 °F 30.05 in WNW 4.0 mph 4.0 mph 96% 0.00 in
03:10 54.6 °F 53.5 °F 30.05 in WNW 2.0 mph 4.0 mph 96% 0.00 in
03:15 54.6 °F 53.5 °F 30.05 in West 1.0 mph 3.0 mph 96% 0.00 in
03:20 54.5 °F 53.4 °F 30.04 in WNW 3.0 mph 5.0 mph 96% 0.00 in
03:25 54.5 °F 53.4 °F 30.05 in West 2.0 mph 3.0 mph 96% 0.00 in
03:30 54.4 °F 53.3 °F 30.05 in West 1.0 mph 2.0 mph 96% 0.00 in
03:35 54.4 °F 53.3 °F 30.05 in West 3.0 mph 4.0 mph 96% 0.00 in
03:36 54.4 °F 53.3 °F 30.05 in WNW 4.0 mph 4.0 mph 96% 0.00 in
03:41 54.4 °F 53.3 °F 30.06 in WNW 3.0 mph 4.0 mph 96% 0.00 in
03:46 54.3 °F 53.2 °F 30.05 in West 5.0 mph 5.0 mph 96% 0.00 in
03:51 54.3 °F 53.2 °F 30.05 in WNW 3.0 mph 5.0 mph 96% 0.00 in
03:56 54.2 °F 53.1 °F 30.06 in WNW 7.0 mph 8.0 mph 96% 0.00 in
04:01 53.8 °F 52.7 °F 30.05 in WNW 7.0 mph 11.0 mph 96% 0.00 in
04:06 53.6 °F 52.5 °F 30.05 in WNW 5.0 mph 10.0 mph 96% 0.00 in
04:11 53.4 °F 52.3 °F 30.05 in WNW 6.0 mph 9.0 mph 96% 0.00 in
04:16 53.2 °F 52.1 °F 30.05 in WNW 7.0 mph 10.0 mph 96% 0.00 in
04:21 53.0 °F 51.6 °F 30.05 in West 10.0 mph 10.0 mph 95% 0.00 in
04:26 52.8 °F 51.7 °F 30.05 in WNW 6.0 mph 10.0 mph 96% 0.00 in
04:31 52.6 °F 51.2 °F 30.06 in West 11.0 mph 11.0 mph 95% 0.00 in
04:36 52.4 °F 51.0 °F 30.06 in WNW 9.0 mph 11.0 mph 95% 0.00 in
04:41 52.2 °F 50.8 °F 30.06 in West 8.0 mph 10.0 mph 95% 0.00 in
04:46 52.0 °F 50.6 °F 30.06 in West 9.0 mph 11.0 mph 95% 0.00 in
04:51 51.8 °F 50.7 °F 30.06 in WNW 6.0 mph 7.0 mph 96% 0.00 in
04:56 51.7 °F 50.6 °F 30.06 in WNW 6.0 mph 10.0 mph 96% 0.00 in
05:01 51.5 °F 50.4 °F 30.06 in NW 5.0 mph 11.0 mph 96% 0.00 in
05:06 51.2 °F 49.8 °F 30.06 in NNW 7.0 mph 8.0 mph 95% 0.00 in
05:11 51.0 °F 49.6 °F 30.06 in NW 6.0 mph 10.0 mph 95% 0.00 in
05:16 50.8 °F 49.4 °F 30.06 in WNW 3.0 mph 9.0 mph 95% 0.00 in
05:22 50.7 °F 49.3 °F 30.06 in WNW 7.0 mph 10.0 mph 95% 0.00 in
05:27 50.6 °F 49.5 °F 30.06 in WNW 3.0 mph 7.0 mph 96% 0.00 in
05:32 50.5 °F 49.4 °F 30.06 in NW 4.0 mph 6.0 mph 96% 0.00 in
05:37 50.4 °F 49.3 °F 30.06 in NW 4.0 mph 7.0 mph 96% 0.00 in
05:42 50.3 °F 49.2 °F 30.07 in WNW 5.0 mph 8.0 mph 96% 0.00 in
05:47 50.2 °F 49.1 °F 30.07 in WNW 4.0 mph 5.0 mph 96% 0.00 in
05:52 50.1 °F 49.0 °F 30.07 in NW 4.0 mph 7.0 mph 96% 0.00 in
05:57 50.0 °F 48.9 °F 30.07 in NW 3.0 mph 6.0 mph 96% 0.00 in
06:02 49.9 °F 48.8 °F 30.06 in WNW 6.0 mph 8.0 mph 96% 0.00 in
06:07 49.7 °F 48.6 °F 30.06 in West 7.0 mph 10.0 mph 96% 0.00 in
06:12 49.7 °F 48.3 °F 30.06 in WNW 3.0 mph 8.0 mph 95% 0.00 in
06:17 49.6 °F 48.2 °F 30.07 in West 5.0 mph 8.0 mph 95% 0.00 in
06:22 49.6 °F 48.2 °F 30.06 in WNW 2.0 mph 6.0 mph 95% 0.00 in
06:27 49.6 °F 48.2 °F 30.06 in WNW 4.0 mph 6.0 mph 95% 0.00 in
06:32 49.5 °F 48.1 °F 30.06 in WNW 7.0 mph 8.0 mph 95% 0.00 in
06:37 49.5 °F 48.1 °F 30.06 in NW 6.0 mph 8.0 mph 95% 0.00 in
06:42 49.4 °F 48.0 °F 30.06 in West 6.0 mph 9.0 mph 95% 0.00 in
06:47 49.3 °F 47.9 °F 30.07 in NW 5.0 mph 8.0 mph 95% 0.00 in
06:52 49.3 °F 47.9 °F 30.07 in WNW 3.0 mph 10.0 mph 95% 0.00 in
06:57 49.2 °F 47.8 °F 30.07 in WNW 2.0 mph 7.0 mph 95% 0.00 in
07:02 49.1 °F 47.7 °F 30.07 in WNW 4.0 mph 7.0 mph 95% 0.00 in
07:07 49.1 °F 47.7 °F 30.07 in WNW 3.0 mph 7.0 mph 95% 0.00 in
07:12 49.1 °F 47.7 °F 30.08 in WNW 3.0 mph 5.0 mph 95% 0.00 in
07:17 49.1 °F 47.7 °F 30.08 in WNW 4.0 mph 8.0 mph 95% 0.00 in
07:22 49.1 °F 47.5 °F 30.08 in WNW 4.0 mph 12.0 mph 94% 0.00 in
07:27 49.1 °F 47.5 °F 30.08 in West 3.0 mph 7.0 mph 94% 0.00 in
07:32 49.1 °F 47.5 °F 30.08 in NW 7.0 mph 7.0 mph 94% 0.00 in
07:37 49.2 °F 47.5 °F 30.09 in West 4.0 mph 6.0 mph 94% 0.00 in
07:42 49.2 °F 47.5 °F 30.09 in WNW 2.0 mph 8.0 mph 94% 0.00 in
07:47 49.1 °F 47.5 °F 30.09 in NW 3.0 mph 8.0 mph 94% 0.00 in
07:52 49.2 °F 47.5 °F 30.09 in WNW 5.0 mph 9.0 mph 94% 0.00 in
07:57 49.2 °F 47.5 °F 30.09 in WNW 5.0 mph 7.0 mph 94% 0.00 in
08:02 49.1 °F 47.5 °F 30.10 in WNW 3.0 mph 6.0 mph 94% 0.00 in
08:07 49.1 °F 47.5 °F 30.09 in WNW 5.0 mph 5.0 mph 94% 0.00 in
08:12 49.1 °F 47.5 °F 30.09 in WNW 5.0 mph 5.0 mph 94% 0.00 in
08:17 49.0 °F 47.3 °F 30.09 in NW 3.0 mph 6.0 mph 94% 0.00 in
08:22 49.0 °F 47.3 °F 30.09 in WNW 3.0 mph 7.0 mph 94% 0.00 in
08:27 49.0 °F 47.3 °F 30.09 in WNW 2.0 mph 4.0 mph 94% 0.00 in
08:32 48.9 °F 47.2 °F 30.09 in WNW 2.0 mph 4.0 mph 94% 0.00 in
08:38 48.9 °F 47.2 °F 30.09 in WNW 2.0 mph 2.0 mph 94% 0.00 in
08:43 49.0 °F 47.3 °F 30.09 in NW 2.0 mph 3.0 mph 94% 0.00 in
08:48 49.2 °F 47.5 °F 30.10 in West 3.0 mph 3.0 mph 94% 0.00 in
08:53 49.3 °F 47.7 °F 30.10 in NW 4.0 mph 5.0 mph 94% 0.00 in
08:58 49.4 °F 47.8 °F 30.10 in West 3.0 mph 4.0 mph 94% 0.00 in
09:03 49.5 °F 47.8 °F 30.10 in WNW 5.0 mph 6.0 mph 94% 0.00 in
09:08 49.5 °F 47.8 °F 30.10 in WNW 4.0 mph 7.0 mph 94% 0.00 in
09:13 49.6 °F 48.0 °F 30.11 in WNW 2.0 mph 4.0 mph 94% 0.00 in
09:18 49.6 °F 48.0 °F 30.11 in WNW 3.0 mph 4.0 mph 94% 0.00 in
09:23 49.6 °F 48.0 °F 30.11 in WNW 6.0 mph 6.0 mph 94% 0.00 in
09:28 49.5 °F 47.8 °F 30.11 in West 4.0 mph 8.0 mph 94% 0.00 in
09:33 49.5 °F 47.8 °F 30.11 in WNW 4.0 mph 5.0 mph 94% 0.00 in
09:38 49.5 °F 47.8 °F 30.12 in WNW 5.0 mph 7.0 mph 94% 0.00 in
09:43 49.6 °F 48.0 °F 30.12 in WSW 4.0 mph 5.0 mph 94% 0.00 in
09:48 49.5 °F 47.8 °F 30.12 in WSW 5.0 mph 6.0 mph 94% 0.00 in
09:53 49.5 °F 47.8 °F 30.13 in West 4.0 mph 6.0 mph 94% 0.00 in
09:58 49.5 °F 47.6 °F 30.13 in NW 5.0 mph 7.0 mph 93% 0.00 in
10:03 49.6 °F 47.7 °F 30.12 in WNW 4.0 mph 6.0 mph 93% 0.00 in
10:08 49.7 °F 47.8 °F 30.13 in West 3.0 mph 5.0 mph 93% 0.00 in
10:13 50.0 °F 48.1 °F 30.13 in WNW 7.0 mph 8.0 mph 93% 0.00 in
10:18 50.0 °F 48.1 °F 30.13 in WNW 6.0 mph 6.0 mph 93% 0.00 in
10:24 50.1 °F 47.9 °F 30.13 in WNW 6.0 mph 8.0 mph 92% 0.00 in
10:29 50.6 °F 48.4 °F 30.13 in WNW 5.0 mph 7.0 mph 92% 0.00 in
10:34 50.8 °F 48.3 °F 30.13 in WNW 7.0 mph 11.0 mph 91% 0.00 in
10:39 50.6 °F 47.8 °F 30.13 in NW 8.0 mph 10.0 mph 90% 0.00 in
10:44 50.6 °F 47.8 °F 30.13 in WNW 4.0 mph 10.0 mph 90% 0.00 in
10:49 50.7 °F 47.9 °F 30.13 in NW 4.0 mph 7.0 mph 90% 0.00 in
10:54 50.8 °F 48.0 °F 30.13 in NNW 5.0 mph 9.0 mph 90% 0.00 in
10:59 51.1 °F 47.7 °F 30.13 in WNW 6.0 mph 10.0 mph 88% 0.00 in
11:04 50.9 °F 47.5 °F 30.14 in WNW 7.0 mph 10.0 mph 88% 0.00 in
11:09 51.1 °F 47.7 °F 30.14 in NW 11.0 mph 11.0 mph 88% 0.00 in
11:14 51.3 °F 47.6 °F 30.14 in WNW 5.0 mph 8.0 mph 87% 0.00 in
11:19 51.6 °F 47.9 °F 30.14 in NW 9.0 mph 9.0 mph 87% 0.00 in
11:24 51.9 °F 47.8 °F 30.15 in NNW 3.0 mph 9.0 mph 86% 0.00 in
11:29 52.4 °F 47.7 °F 30.15 in NW 7.0 mph 9.0 mph 84% 0.00 in
11:34 52.2 °F 47.5 °F 30.15 in NW 6.0 mph 9.0 mph 84% 0.00 in
11:39 52.3 °F 47.6 °F 30.16 in West 6.0 mph 8.0 mph 84% 0.00 in
11:44 52.4 °F 47.1 °F 30.16 in WNW 9.0 mph 10.0 mph 82% 0.00 in
11:49 52.5 °F 47.5 °F 30.16 in NW 7.0 mph 10.0 mph 83% 0.00 in
11:54 52.3 °F 47.0 °F 30.15 in NW 6.0 mph 10.0 mph 82% 0.00 in
11:59 52.4 °F 47.7 °F 30.15 in WNW 5.0 mph 7.0 mph 84% 0.00 in
12:05 53.0 °F 47.3 °F 30.15 in WNW 8.0 mph 8.0 mph 81% 0.00 in
12:10 53.9 °F 48.5 °F 30.14 in NW 9.0 mph 9.0 mph 82% 0.00 in
12:15 53.4 °F 46.7 °F 30.14 in WNW 6.0 mph 9.0 mph 78% 0.00 in
12:20 53.5 °F 46.8 °F 30.14 in NW 11.0 mph 11.0 mph 78% 0.00 in
12:25 53.9 °F 46.9 °F 30.15 in WNW 7.0 mph 11.0 mph 77% 0.00 in
12:30 54.3 °F 46.2 °F 30.15 in West 6.0 mph 9.0 mph 74% 0.00 in
12:35 55.0 °F 47.2 °F 30.15 in WNW 5.0 mph 7.0 mph 75% 0.00 in
12:36 55.0 °F 47.6 °F 30.15 in NW 7.0 mph 7.0 mph 76% 0.00 in
12:41 54.3 °F 46.6 °F 30.15 in WNW 4.0 mph 10.0 mph 75% 0.00 in
12:46 53.9 °F 47.2 °F 30.14 in NNW 6.0 mph 7.0 mph 78% 0.00 in
12:51 53.9 °F 46.9 °F 30.14 in North 4.0 mph 8.0 mph 77% 0.00 in
12:56 53.9 °F 46.5 °F 30.14 in NW 6.0 mph 10.0 mph 76% 0.00 in
13:01 53.7 °F 46.7 °F 30.13 in NW 4.0 mph 7.0 mph 77% 0.00 in
13:06 53.5 °F 46.1 °F 30.13 in WNW 5.0 mph 8.0 mph 76% 0.00 in
13:11 54.2 °F 46.1 °F 30.13 in NW 4.0 mph 8.0 mph 74% 0.00 in
13:16 54.7 °F 45.5 °F 30.13 in NNW 3.0 mph 8.0 mph 71% 0.00 in
13:21 55.0 °F 46.5 °F 30.13 in NNW 1.0 mph 8.0 mph 73% 0.00 in
13:26 55.0 °F 45.4 °F 30.13 in NNW 5.0 mph 6.0 mph 70% 0.00 in
13:31 55.0 °F 45.4 °F 30.13 in NW 4.0 mph 6.0 mph 70% 0.00 in
13:36 54.6 °F 46.1 °F 30.13 in WNW 6.0 mph 10.0 mph 73% 0.00 in
13:41 54.1 °F 45.7 °F 30.12 in NW 7.0 mph 10.0 mph 73% 0.00 in
13:46 53.8 °F 45.7 °F 30.12 in WNW 11.0 mph 11.0 mph 74% 0.00 in
13:51 53.7 °F 44.5 °F 30.12 in NW 4.0 mph 10.0 mph 71% 0.00 in
13:56 53.8 °F 44.6 °F 30.12 in WNW 4.0 mph 8.0 mph 71% 0.00 in
14:01 53.7 °F 44.9 °F 30.12 in NW 8.0 mph 8.0 mph 72% 0.00 in
14:06 53.9 °F 45.1 °F 30.12 in NW 4.0 mph 6.0 mph 72% 0.00 in
14:11 54.4 °F 45.9 °F 30.12 in NW 3.0 mph 6.0 mph 73% 0.00 in
14:16 55.3 °F 44.9 °F 30.12 in WNW 8.0 mph 9.0 mph 68% 0.00 in
14:21 54.6 °F 43.9 °F 30.12 in WNW 6.0 mph 11.0 mph 67% 0.00 in
14:26 54.2 °F 43.9 °F 30.12 in NW 8.0 mph 11.0 mph 68% 0.00 in
14:31 53.7 °F 43.4 °F 30.13 in WNW 5.0 mph 11.0 mph 68% 0.00 in
14:37 53.9 °F 44.0 °F 30.13 in WNW 8.0 mph 9.0 mph 69% 0.00 in
14:42 53.7 °F 43.4 °F 30.12 in West 4.0 mph 11.0 mph 68% 0.00 in
14:47 53.8 °F 44.3 °F 30.12 in NW 4.0 mph 8.0 mph 70% 0.00 in
14:52 54.1 °F 44.5 °F 30.12 in NW 5.0 mph 8.0 mph 70% 0.00 in
14:57 53.9 °F 43.2 °F 30.12 in NW 8.0 mph 10.0 mph 67% 0.00 in
15:02 53.9 °F 44.0 °F 30.12 in WNW 6.0 mph 8.0 mph 69% 0.00 in
15:07 54.1 °F 43.8 °F 30.12 in NW 8.0 mph 8.0 mph 68% 0.00 in
15:12 53.8 °F 43.5 °F 30.12 in WNW 9.0 mph 13.0 mph 68% 0.00 in
15:17 53.7 °F 43.8 °F 30.13 in WNW 8.0 mph 9.0 mph 69% 0.00 in
15:22 53.6 °F 43.3 °F 30.12 in NW 6.0 mph 8.0 mph 68% 0.00 in
15:27 53.6 °F 43.3 °F 30.12 in WNW 7.0 mph 8.0 mph 68% 0.00 in
15:32 53.8 °F 43.9 °F 30.13 in WNW 7.0 mph 7.0 mph 69% 0.00 in
15:37 53.7 °F 43.8 °F 30.12 in NW 7.0 mph 9.0 mph 69% 0.00 in
15:42 53.7 °F 44.2 °F 30.13 in NW 5.0 mph 8.0 mph 70% 0.00 in
15:47 53.8 °F 44.3 °F 30.13 in WNW 4.0 mph 8.0 mph 70% 0.00 in
15:52 53.8 °F 43.1 °F 30.12 in NW 7.0 mph 11.0 mph 67% 0.00 in
15:57 53.4 °F 43.5 °F 30.13 in WNW 7.0 mph 10.0 mph 69% 0.00 in
16:02 53.3 °F 43.4 °F 30.12 in WNW 8.0 mph 10.0 mph 69% 0.00 in
16:07 53.5 °F 44.0 °F 30.12 in West 6.0 mph 9.0 mph 70% 0.00 in
16:12 53.6 °F 44.1 °F 30.12 in WNW 6.0 mph 8.0 mph 70% 0.00 in
16:17 53.6 °F 44.1 °F 30.12 in WNW 6.0 mph 9.0 mph 70% 0.00 in
16:22 53.4 °F 43.5 °F 30.12 in NNW 7.0 mph 11.0 mph 69% 0.00 in
16:27 53.2 °F 42.9 °F 30.12 in WNW 5.0 mph 9.0 mph 68% 0.00 in
16:32 53.1 °F 42.8 °F 30.13 in NW 7.0 mph 10.0 mph 68% 0.00 in
16:38 53.2 °F 43.3 °F 30.13 in NW 4.0 mph 8.0 mph 69% 0.00 in
16:43 53.0 °F 43.1 °F 30.14 in NNW 4.0 mph 8.0 mph 69% 0.00 in
16:48 53.0 °F 43.1 °F 30.14 in WNW 4.0 mph 7.0 mph 69% 0.00 in
16:53 53.1 °F 43.6 °F 30.14 in WNW 2.0 mph 4.0 mph 70% 0.00 in
16:58 53.1 °F 42.8 °F 30.14 in WNW 3.0 mph 8.0 mph 68% 0.00 in
17:03 53.0 °F 41.6 °F 30.14 in WNW 8.0 mph 11.0 mph 65% 0.00 in
17:08 52.9 °F 41.5 °F 30.14 in NW 6.0 mph 8.0 mph 65% 0.00 in
17:13 52.9 °F 41.1 °F 30.13 in WNW 4.0 mph 7.0 mph 64% 0.00 in
17:18 52.8 °F 41.0 °F 30.13 in NW 7.0 mph 7.0 mph 64% 0.00 in
17:23 52.6 °F 41.6 °F 30.13 in NNW 6.0 mph 7.0 mph 66% 0.00 in
17:28 52.5 °F 41.5 °F 30.14 in NW 6.0 mph 6.0 mph 66% 0.00 in
17:33 52.3 °F 40.9 °F 30.14 in NW 5.0 mph 7.0 mph 65% 0.00 in
17:38 52.3 °F 41.7 °F 30.14 in NW 5.0 mph 7.0 mph 67% 0.00 in
17:43 52.2 °F 41.2 °F 30.14 in NW 5.0 mph 6.0 mph 66% 0.00 in
17:48 52.1 °F 41.5 °F 30.14 in NW 3.0 mph 6.0 mph 67% 0.00 in
17:53 51.9 °F 41.7 °F 30.14 in WNW 4.0 mph 8.0 mph 68% 0.00 in
17:59 51.8 °F 42.0 °F 30.14 in WNW 4.0 mph 7.0 mph 69% 0.00 in
18:04 51.6 °F 42.2 °F 30.14 in WNW 4.0 mph 6.0 mph 70% 0.00 in
18:09 51.4 °F 42.3 °F 30.14 in NW 6.0 mph 6.0 mph 71% 0.00 in
18:14 51.2 °F 42.5 °F 30.15 in WNW 5.0 mph 5.0 mph 72% 0.00 in
18:19 51.1 °F 42.4 °F 30.15 in WNW 3.0 mph 6.0 mph 72% 0.00 in
18:24 50.9 °F 42.2 °F 30.15 in NW 4.0 mph 8.0 mph 72% 0.00 in
18:29 50.8 °F 42.5 °F 30.15 in WNW 4.0 mph 6.0 mph 73% 0.00 in
18:34 50.7 °F 42.4 °F 30.15 in WNW 7.0 mph 7.0 mph 73% 0.00 in
18:39 50.5 °F 42.2 °F 30.15 in NNW 3.0 mph 4.0 mph 73% 0.00 in
18:44 50.4 °F 42.1 °F 30.15 in NW 4.0 mph 5.0 mph 73% 0.00 in
18:49 50.3 °F 42.3 °F 30.15 in NW 5.0 mph 6.0 mph 74% 0.00 in
18:54 50.2 °F 42.2 °F 30.15 in NNW 5.0 mph 11.0 mph 74% 0.00 in
18:59 50.1 °F 42.5 °F 30.16 in NW 5.0 mph 8.0 mph 75% 0.00 in
19:04 49.8 °F 42.9 °F 30.15 in NNW 6.0 mph 9.0 mph 77% 0.00 in
19:09 49.4 °F 43.2 °F 30.16 in North 5.0 mph 9.0 mph 79% 0.00 in
19:14 49.1 °F 42.9 °F 30.15 in North 5.0 mph 8.0 mph 79% 0.00 in
19:19 48.8 °F 42.9 °F 30.15 in North 5.0 mph 9.0 mph 80% 0.00 in
19:24 48.6 °F 43.0 °F 30.16 in NNW 6.0 mph 8.0 mph 81% 0.00 in
19:29 48.4 °F 42.8 °F 30.16 in North 4.0 mph 7.0 mph 81% 0.00 in
19:34 48.2 °F 43.0 °F 30.16 in NNW 4.0 mph 5.0 mph 82% 0.00 in
19:40 48.0 °F 42.8 °F 30.16 in NNW 5.0 mph 5.0 mph 82% 0.00 in
19:45 47.8 °F 42.9 °F 30.16 in NW 4.0 mph 6.0 mph 83% 0.00 in
19:50 47.6 °F 42.7 °F 30.16 in NNW 3.0 mph 5.0 mph 83% 0.00 in
19:55 47.4 °F 42.8 °F 30.16 in NNW 4.0 mph 5.0 mph 84% 0.00 in
20:00 47.2 °F 42.6 °F 30.16 in NW 2.0 mph 4.0 mph 84% 0.00 in
20:05 47.1 °F 42.8 °F 30.16 in NNW 3.0 mph 4.0 mph 85% 0.00 in
20:10 46.9 °F 42.6 °F 30.16 in NNW 4.0 mph 6.0 mph 85% 0.00 in
20:15 46.8 °F 42.5 °F 30.16 in NNW 2.0 mph 4.0 mph 85% 0.00 in
20:20 46.7 °F 42.4 °F 30.16 in NW 4.0 mph 4.0 mph 85% 0.00 in
20:25 46.7 °F 42.4 °F 30.16 in North 2.0 mph 3.0 mph 85% 0.00 in
20:30 46.6 °F 42.3 °F 30.16 in North 2.0 mph 2.0 mph 85% 0.00 in
20:35 46.4 °F 42.1 °F 30.17 in Calm   3.0 mph 85% 0.00 in
20:40 46.2 °F 42.2 °F 30.17 in NW 1.0 mph 2.0 mph 86% 0.00 in
20:45 46.0 °F 42.0 °F 30.17 in NW 2.0 mph 2.0 mph 86% 0.00 in
20:50 45.9 °F 42.3 °F 30.17 in NW 3.0 mph 3.0 mph 87% 0.00 in
20:55 45.9 °F 42.3 °F 30.18 in NW 1.0 mph 2.0 mph 87% 0.00 in
21:00 45.9 °F 42.3 °F 30.18 in NW 1.0 mph 3.0 mph 87% 0.00 in
21:05 45.9 °F 42.3 °F 30.17 in NW 2.0 mph 3.0 mph 87% 0.00 in
21:10 45.9 °F 42.3 °F 30.18 in NW 3.0 mph 4.0 mph 87% 0.00 in
21:15 46.0 °F 42.3 °F 30.18 in NW 3.0 mph 6.0 mph 87% 0.00 in
21:20 46.0 °F 42.3 °F 30.18 in NW 4.0 mph 5.0 mph 87% 0.00 in
21:25 46.1 °F 42.5 °F 30.18 in NNW 5.0 mph 7.0 mph 87% 0.00 in
21:30 46.0 °F 42.3 °F 30.18 in NW 8.0 mph 10.0 mph 87% 0.00 in
21:35 45.9 °F 42.3 °F 30.18 in WNW 3.0 mph 6.0 mph 87% 0.00 in
21:40 45.7 °F 42.1 °F 30.18 in NW 2.0 mph 8.0 mph 87% 0.00 in
21:45 45.5 °F 42.2 °F 30.18 in NW 5.0 mph 5.0 mph 88% 0.00 in
21:50 45.4 °F 42.3 °F 30.18 in NNW 2.0 mph 4.0 mph 89% 0.00 in
21:55 45.3 °F 42.3 °F 30.18 in NW 3.0 mph 5.0 mph 89% 0.00 in
22:00 45.1 °F 42.1 °F 30.19 in NW 5.0 mph 7.0 mph 89% 0.00 in
22:05 45.0 °F 42.0 °F 30.18 in NW 5.0 mph 5.0 mph 89% 0.00 in
22:10 44.9 °F 42.2 °F 30.18 in NW 4.0 mph 6.0 mph 90% 0.00 in
22:15 44.8 °F 42.0 °F 30.18 in NW 5.0 mph 6.0 mph 90% 0.00 in
22:20 44.7 °F 42.0 °F 30.18 in North 3.0 mph 6.0 mph 90% 0.00 in
22:25 44.5 °F 41.8 °F 30.18 in NNW 3.0 mph 5.0 mph 90% 0.00 in
22:30 44.4 °F 41.9 °F 30.18 in NNW 4.0 mph 4.0 mph 91% 0.00 in
22:35 44.2 °F 41.7 °F 30.18 in NNW 3.0 mph 4.0 mph 91% 0.00 in
22:40 44.1 °F 41.9 °F 30.18 in NNW 4.0 mph 5.0 mph 92% 0.00 in
22:45 43.9 °F 41.7 °F 30.18 in NW 3.0 mph 5.0 mph 92% 0.00 in
22:50 43.8 °F 41.6 °F 30.17 in NW 5.0 mph 5.0 mph 92% 0.00 in
22:55 43.7 °F 41.5 °F 30.18 in NW 4.0 mph 5.0 mph 92% 0.00 in
23:00 43.6 °F 41.4 °F 30.17 in NW 2.0 mph 4.0 mph 92% 0.00 in
23:05 43.4 °F 41.5 °F 30.17 in NW 4.0 mph 5.0 mph 93% 0.00 in
23:10 43.3 °F 41.4 °F 30.17 in NW 2.0 mph 4.0 mph 93% 0.00 in
23:15 43.2 °F 41.3 °F 30.17 in NW 2.0 mph 3.0 mph 93% 0.00 in
23:20 43.2 °F 41.3 °F 30.17 in NNW 2.0 mph 3.0 mph 93% 0.00 in
23:25 43.2 °F 41.3 °F 30.17 in NW 2.0 mph 4.0 mph 93% 0.00 in
23:30 43.0 °F 41.1 °F 30.17 in NW 2.0 mph 3.0 mph 93% 0.00 in
23:35 43.0 °F 41.4 °F 30.18 in NW 2.0 mph 3.0 mph 94% 0.00 in
23:36 43.0 °F 41.4 °F 30.18 in NW 2.0 mph 3.0 mph 94% 0.00 in
23:41 42.9 °F 41.3 °F 30.18 in NW 2.0 mph 2.0 mph 94% 0.00 in
23:46 42.8 °F 41.2 °F 30.18 in NW 2.0 mph 3.0 mph 94% 0.00 in
23:51 42.8 °F 41.2 °F 30.18 in NW 1.0 mph 2.0 mph 94% 0.00 in
23:56 42.7 °F 41.1 °F 30.18 in NW 2.0 mph 3.0 mph 94% 0.00 in
Compliments of Weather Underground